createdAt,value
2023-03-08T00:01:44.569Z,7.50
2023-03-08T00:04:15.753Z,8.23
2023-03-08T00:06:59.372Z,7.23
2023-03-08T00:09:44.172Z,7.37
2023-03-08T00:12:20.835Z,6.77
2023-03-08T00:15:10.319Z,8.80
2023-03-08T00:18:03.873Z,7.70
2023-03-08T00:20:45.519Z,8.43
2023-03-08T00:23:21.316Z,9.20
2023-03-08T00:26:29.610Z,9.03
2023-03-08T00:28:58.708Z,8.23
2023-03-08T00:31:38.049Z,9.50
2023-03-08T00:34:13.236Z,9.37
2023-03-08T00:36:50.831Z,10.17
2023-03-08T00:39:30.468Z,9.90
2023-03-08T00:42:18.376Z,11.47
2023-03-08T00:44:59.691Z,8.53
2023-03-08T00:47:36.917Z,8.20
2023-03-08T00:50:10.672Z,11.13
2023-03-08T00:52:49.498Z,13.07
2023-03-08T00:55:23.321Z,10.37
2023-03-08T00:58:02.356Z,10.33
2023-03-08T01:00:39.982Z,11.57
2023-03-08T01:03:31.711Z,8.93
2023-03-08T01:06:27.209Z,9.60
2023-03-08T01:09:00.106Z,11.27
2023-03-08T01:11:47.709Z,11.57
2023-03-08T01:14:16.547Z,10.17
2023-03-08T01:16:56.246Z,13.07
2023-03-08T01:19:23.918Z,10.63
2023-03-08T01:22:07.209Z,13.10
2023-03-08T01:24:59.282Z,12.37
2023-03-08T01:27:49.720Z,12.57
2023-03-08T01:30:26.641Z,12.00
2023-03-08T01:33:09.999Z,11.43
2023-03-08T01:36:01.550Z,12.70
2023-03-08T01:38:47.412Z,11.43
2023-03-08T01:41:47.524Z,12.77
2023-03-08T01:44:30.885Z,13.27
2023-03-08T01:47:18.651Z,11.23
2023-03-08T01:49:54.571Z,12.90
2023-03-08T01:52:45.168Z,11.07
2023-03-08T01:55:22.089Z,13.60
2023-03-08T01:58:06.238Z,11.97
2023-03-08T02:00:42.552Z,11.83
2023-03-08T02:03:21.424Z,14.70
2023-03-08T02:06:07.685Z,12.87
2023-03-08T02:08:43.427Z,13.03
2023-03-08T02:11:16.014Z,11.20
2023-03-08T02:13:53.720Z,10.87
2023-03-08T02:16:40.489Z,12.00
2023-03-08T02:19:30.709Z,13.60
2023-03-08T02:22:10.649Z,12.80
2023-03-08T02:24:49.481Z,11.90
2023-03-08T02:27:38.725Z,15.17
2023-03-08T02:30:14.281Z,16.27
2023-03-08T02:32:45.547Z,13.30
2023-03-08T02:35:34.478Z,15.37
2023-03-08T02:38:04.069Z,14.80
2023-03-08T02:40:38.313Z,17.43
2023-03-08T02:43:23.060Z,19.47
2023-03-08T02:46:11.537Z,15.07
2023-03-08T02:48:53.613Z,17.47
2023-03-08T02:51:27.356Z,16.73
2023-03-08T02:54:09.020Z,18.03
2023-03-08T02:56:40.071Z,18.03
2023-03-08T02:59:26.498Z,16.20
2023-03-08T03:01:58.749Z,18.20
2023-03-08T03:04:37.320Z,18.10
2023-03-08T03:07:08.793Z,17.73
2023-03-08T03:09:49.754Z,19.50
2023-03-08T03:12:19.875Z,19.83
2023-03-08T03:14:57.604Z,21.57
2023-03-08T03:17:26.768Z,17.97
2023-03-08T03:20:05.729Z,19.27
2023-03-08T03:22:35.365Z,20.20
2023-03-08T03:25:34.251Z,16.77
2023-03-08T03:28:23.005Z,15.73
2023-03-08T03:33:40.135Z,20.40
2023-03-08T03:36:12.910Z,20.60
2023-03-08T03:38:47.279Z,21.90
2023-03-08T03:41:31.129Z,21.37
2023-03-08T03:44:01.906Z,22.97
2023-03-08T03:46:36.347Z,23.13
2023-03-08T03:49:04.098Z,21.37
2023-03-08T03:51:40.351Z,25.07
2023-03-08T03:54:23.152Z,22.87
2023-03-08T03:56:56.610Z,23.17
2023-03-08T03:59:33.139Z,23.57
2023-03-08T04:05:07.837Z,25.50
2023-03-08T04:07:52.157Z,22.87
2023-03-08T04:10:36.403Z,25.40
2023-03-08T04:13:11.777Z,21.97
2023-03-08T04:15:49.434Z,22.50
2023-03-08T04:18:20.713Z,24.73
2023-03-08T04:21:07.093Z,20.67
2023-03-08T04:23:39.401Z,20.20
2023-03-08T04:26:32.237Z,21.73
2023-03-08T04:29:06.700Z,23.90
2023-03-08T04:31:45.810Z,25.00
2023-03-08T04:34:19.789Z,26.83
2023-03-08T04:36:56.161Z,26.13
2023-03-08T04:39:30.978Z,26.60
2023-03-08T04:42:12.242Z,26.17
2023-03-08T04:44:47.285Z,25.10
2023-03-08T04:47:21.512Z,29.33
2023-03-08T04:49:55.181Z,28.47
2023-03-08T04:52:31.280Z,29.57
2023-03-08T04:55:06.098Z,25.23
2023-03-08T04:57:53.398Z,28.20
2023-03-08T05:00:25.376Z,24.93
2023-03-08T05:03:02.493Z,28.90
2023-03-08T05:05:39.926Z,25.30
2023-03-08T05:08:22.374Z,27.23
2023-03-08T05:11:15.217Z,28.23
2023-03-08T05:13:42.725Z,24.80
2023-03-08T05:16:27.901Z,26.60
2023-03-08T05:21:54.626Z,27.77
2023-03-08T05:27:30.601Z,26.17
2023-03-08T05:30:15.487Z,27.87
2023-03-08T05:32:54.254Z,27.30
2023-03-08T05:35:31.219Z,23.00
2023-03-08T05:38:09.444Z,22.83
2023-03-08T05:40:55.870Z,25.10
2023-03-08T05:43:36.558Z,24.17
2023-03-08T05:46:17.090Z,24.33
2023-03-08T05:48:53.227Z,24.70
2023-03-08T05:51:28.647Z,22.23
2023-03-08T05:54:05.600Z,29.63
2023-03-08T05:56:33.251Z,24.07
2023-03-08T05:59:14.981Z,15.03
2023-03-08T06:02:00.159Z,23.60
2023-03-08T06:04:44.587Z,23.50
2023-03-08T06:07:14.846Z,23.03
2023-03-08T06:09:52.492Z,24.20
2023-03-08T06:12:22.326Z,25.87
2023-03-08T06:15:02.033Z,22.23
2023-03-08T06:17:33.637Z,24.80
2023-03-08T06:20:19.396Z,25.20
2023-03-08T06:23:06.983Z,19.83
2023-03-08T06:25:44.966Z,24.20
2023-03-08T06:28:35.275Z,22.00
2023-03-08T06:31:26.995Z,23.07
2023-03-08T06:33:57.284Z,24.63
2023-03-08T06:36:36.169Z,23.40
2023-03-08T06:39:14.560Z,23.00
2023-03-08T06:41:46.705Z,25.27
2023-03-08T06:44:26.321Z,23.80
2023-03-08T06:47:03.739Z,23.20
2023-03-08T06:49:37.110Z,20.60
2023-03-08T06:52:13.451Z,23.97
2023-03-08T06:54:48.346Z,24.90
2023-03-08T06:57:25.315Z,26.40
2023-03-08T07:00:02.316Z,20.60
2023-03-08T07:02:36.291Z,26.60
2023-03-08T07:05:16.061Z,26.17
2023-03-08T07:07:52.900Z,24.67
2023-03-08T07:10:30.829Z,24.60
2023-03-08T07:13:05.116Z,24.40
2023-03-08T07:15:51.208Z,23.03
2023-03-08T07:18:21.561Z,23.27
2023-03-08T07:21:04.071Z,22.37
2023-03-08T07:23:34.452Z,21.60
2023-03-08T07:26:21.415Z,23.60
2023-03-08T07:29:06.867Z,19.63
2023-03-08T07:31:52.414Z,23.07
2023-03-08T07:34:19.357Z,25.33
2023-03-08T07:36:55.140Z,27.03
2023-03-08T07:39:30.505Z,24.93
2023-03-08T07:42:05.628Z,22.83
2023-03-08T07:44:33.049Z,28.80
2023-03-08T07:47:09.276Z,22.43
2023-03-08T07:49:43.024Z,28.57
2023-03-08T07:52:17.359Z,28.07
2023-03-08T07:54:52.387Z,26.30
2023-03-08T07:57:43.455Z,24.53
2023-03-08T08:00:12.361Z,25.90
2023-03-08T08:02:48.149Z,24.67
2023-03-08T08:05:21.072Z,21.93
2023-03-08T08:08:03.350Z,22.37
2023-03-08T08:10:40.329Z,25.07
2023-03-08T08:13:21.676Z,23.97
2023-03-08T08:16:14.207Z,24.27
2023-03-08T08:18:50.656Z,24.53
2023-03-08T08:21:30.099Z,29.07
2023-03-08T08:56:28.536Z,21.93
2023-03-08T09:03:22.512Z,22.60
2023-03-08T09:06:13.291Z,24.57
2023-03-08T09:08:48.607Z,24.70
2023-03-08T09:11:28.110Z,20.57
2023-03-08T09:13:58.106Z,23.33
2023-03-08T09:16:36.438Z,19.93
2023-03-08T09:19:17.885Z,23.03
2023-03-08T09:21:55.117Z,21.23
2023-03-08T09:24:41.792Z,20.63
2023-03-08T09:27:29.786Z,22.83
2023-03-08T09:32:53.969Z,18.47
2023-03-08T09:35:32.601Z,19.93
2023-03-08T09:38:22.988Z,21.83
2023-03-08T09:41:24.560Z,24.03
2023-03-08T09:44:33.709Z,25.13
2023-03-08T09:47:33.174Z,22.90
2023-03-08T09:50:36.656Z,22.40
2023-03-08T09:56:49.020Z,22.30
2023-03-08T09:59:49.903Z,18.90
2023-03-08T10:03:14.360Z,18.50
2023-03-08T10:14:16.549Z,22.37
2023-03-08T10:47:41.801Z,29.17
2023-03-08T11:52:08.517Z,21.20
2023-03-08T13:06:43.231Z,12.43
2023-03-08T13:57:27.909Z,13.87
2023-03-08T14:00:46.284Z,15.40
2023-03-08T14:26:50.489Z,14.13
2023-03-08T14:29:44.042Z,11.97
2023-03-08T14:32:31.501Z,13.33
2023-03-08T14:41:39.710Z,11.57
2023-03-08T15:57:04.868Z,10.33
2023-03-08T16:14:20.131Z,11.03
2023-03-08T16:17:04.603Z,11.40
2023-03-08T16:19:44.589Z,11.17
2023-03-08T16:22:17.979Z,10.30
2023-03-08T16:24:55.632Z,9.37
2023-03-08T16:27:29.834Z,11.40
2023-03-08T16:30:07.520Z,10.07
2023-03-08T16:32:47.960Z,12.03
2023-03-08T16:38:17.869Z,10.37
2023-03-08T16:40:52.726Z,11.50
2023-03-08T16:44:02.679Z,11.07
2023-03-08T16:46:45.228Z,11.23
2023-03-08T16:49:24.865Z,10.13
2023-03-08T16:52:21.962Z,9.57
2023-03-08T16:55:06.004Z,11.83
2023-03-08T16:57:39.269Z,11.53
2023-03-08T17:00:19.928Z,11.07
2023-03-08T17:05:48.720Z,11.17
2023-03-08T17:08:24.178Z,11.17
2023-03-08T17:11:13.637Z,11.10
2023-03-08T17:16:40.076Z,10.90
2023-03-08T17:19:17.679Z,11.50
2023-03-08T17:21:59.460Z,11.47
2023-03-08T17:24:40.786Z,14.67
2023-03-08T17:27:19.479Z,11.43
2023-03-08T17:32:39.820Z,11.37
2023-03-08T17:35:18.595Z,9.57
2023-03-08T17:38:07.536Z,12.43
2023-03-08T17:40:38.596Z,10.13
2023-03-08T17:43:13.624Z,11.90
2023-03-08T17:45:43.988Z,11.13
2023-03-08T17:48:28.005Z,10.00
2023-03-08T17:51:22.277Z,9.13
2023-03-08T17:54:05.864Z,8.30
2023-03-08T17:56:46.256Z,10.90
2023-03-08T17:59:24.706Z,10.10
2023-03-08T18:01:56.860Z,8.67
2023-03-08T18:04:34.054Z,10.43
2023-03-08T18:07:06.507Z,10.80
2023-03-08T18:09:48.242Z,8.73
2023-03-08T18:31:45.046Z,9.93
2023-03-08T18:37:08.260Z,8.90
2023-03-08T18:39:46.714Z,10.53
2023-03-08T18:42:21.831Z,10.67
2023-03-08T18:44:49.229Z,9.00
2023-03-08T18:47:28.153Z,10.30
2023-03-08T18:50:10.091Z,10.40
2023-03-08T18:52:46.303Z,8.83
2023-03-08T18:55:15.611Z,9.40
2023-03-08T18:57:57.790Z,9.03
2023-03-08T19:00:36.464Z,8.60
2023-03-08T19:03:22.424Z,7.93
2023-03-08T19:05:49.770Z,8.17
2023-03-08T19:08:17.345Z,8.23
2023-03-08T19:11:02.111Z,9.57
2023-03-08T19:13:44.597Z,9.03
2023-03-08T19:16:34.960Z,8.40
2023-03-08T19:19:16.312Z,9.30
2023-03-08T19:21:51.254Z,8.70
2023-03-08T19:24:27.676Z,8.07
2023-03-08T19:27:03.669Z,10.03
2023-03-08T19:29:41.470Z,7.67
2023-03-08T19:32:21.442Z,10.57
2023-03-08T19:34:58.267Z,7.77
2023-03-08T19:37:43.824Z,9.07
2023-03-08T19:40:35.167Z,9.03
2023-03-08T19:43:17.360Z,8.97
2023-03-08T19:46:09.146Z,8.87
2023-03-08T19:48:58.760Z,9.27
2023-03-08T19:51:35.890Z,9.87
2023-03-08T19:54:07.371Z,7.77
2023-03-08T19:56:45.523Z,8.50
2023-03-08T19:59:17.908Z,8.60
2023-03-08T20:01:53.627Z,11.00
2023-03-08T20:04:30.222Z,8.83
2023-03-08T20:07:09.898Z,10.00
2023-03-08T20:09:51.331Z,8.40
2023-03-08T20:12:31.716Z,10.77
2023-03-08T20:15:10.553Z,8.33
2023-03-08T20:17:50.686Z,7.73
2023-03-08T20:20:33.377Z,7.90
2023-03-08T20:23:25.418Z,8.57
2023-03-08T20:26:13.644Z,8.07
2023-03-08T21:33:03.548Z,12.93
2023-03-08T21:35:52.329Z,13.30
2023-03-08T21:38:24.912Z,12.97
2023-03-08T21:43:48.469Z,16.23
2023-03-08T21:46:34.085Z,14.47
2023-03-08T21:49:07.215Z,16.80
2023-03-08T21:51:45.587Z,14.57
2023-03-08T21:54:18.882Z,17.23
2023-03-08T21:56:56.844Z,14.90
2023-03-08T22:12:29.921Z,15.90
2023-03-08T22:15:18.042Z,16.03
2023-03-08T22:25:22.232Z,15.00
2023-03-08T22:38:42.560Z,12.83
2023-03-08T22:41:57.669Z,11.90
2023-03-08T22:44:38.913Z,13.47
2023-03-08T22:47:30.638Z,12.37
2023-03-08T22:50:14.554Z,14.10
2023-03-08T22:52:42.144Z,14.40
2023-03-08T22:55:12.572Z,13.33
2023-03-08T22:57:58.545Z,14.73
2023-03-08T23:00:34.768Z,16.27
2023-03-08T23:03:27.918Z,13.47
2023-03-08T23:38:47.868Z,17.70
2023-03-08T23:41:32.246Z,18.53
2023-03-08T23:44:18.630Z,17.97
2023-03-08T23:49:47.785Z,18.50
